createdAt,value
2019-05-10T00:00:14.453Z,11.90
2019-05-10T00:03:01.100Z,11.90
2019-05-10T00:05:48.211Z,11.90
2019-05-10T00:08:34.612Z,11.80
2019-05-10T00:11:05.155Z,11.80
2019-05-10T00:13:36.308Z,11.50
2019-05-10T00:16:04.899Z,11.70
2019-05-10T00:18:33.341Z,11.50
2019-05-10T00:21:02.166Z,11.40
2019-05-10T00:23:30.641Z,11.30
2019-05-10T00:25:59.173Z,11.40
2019-05-10T00:28:27.621Z,11.60
2019-05-10T00:30:56.077Z,11.50
2019-05-10T00:33:24.520Z,11.70
2019-05-10T00:35:52.969Z,11.60
2019-05-10T00:38:21.740Z,11.50
2019-05-10T00:40:50.200Z,11.60
2019-05-10T00:43:18.653Z,11.50
2019-05-10T00:45:47.089Z,11.40
2019-05-10T00:48:15.561Z,11.50
2019-05-10T00:50:44.113Z,11.50
2019-05-10T00:53:12.584Z,11.60
2019-05-10T00:55:41.080Z,11.50
2019-05-10T00:58:09.556Z,11.50
2019-05-10T01:00:38.005Z,11.80
2019-05-10T01:03:06.488Z,11.60
2019-05-10T01:05:34.938Z,11.80
2019-05-10T01:08:03.380Z,11.70
2019-05-10T01:10:32.201Z,11.80
2019-05-10T01:13:00.734Z,11.60
2019-05-10T01:15:29.194Z,11.50
2019-05-10T01:17:57.658Z,11.40
2019-05-10T01:20:26.100Z,11.40
2019-05-10T01:22:54.580Z,11.40
2019-05-10T01:25:34.730Z,11.20
2019-05-10T01:27:53.301Z,11.10
2019-05-10T01:30:21.980Z,11.20
2019-05-10T01:32:50.628Z,11.20
2019-05-10T01:35:19.088Z,11.10
2019-05-10T01:37:47.593Z,11.00
2019-05-10T01:40:16.443Z,10.90
2019-05-10T01:42:44.890Z,10.80
2019-05-10T01:45:14.111Z,10.90
2019-05-10T01:47:42.619Z,10.70
2019-05-10T01:50:11.448Z,10.70
2019-05-10T01:52:39.892Z,10.60
2019-05-10T01:55:08.480Z,10.60
2019-05-10T01:57:36.940Z,10.50
2019-05-10T02:00:10.220Z,10.50
2019-05-10T02:02:38.690Z,10.50
2019-05-10T02:05:07.454Z,10.40
2019-05-10T02:07:35.981Z,10.40
2019-05-10T02:10:09.799Z,10.40
2019-05-10T02:12:38.243Z,10.30
2019-05-10T02:15:07.976Z,10.30
2019-05-10T02:17:36.417Z,10.20
2019-05-10T02:20:06.503Z,10.20
2019-05-10T02:22:34.957Z,10.20
2019-05-10T02:25:03.983Z,10.10
2019-05-10T02:27:32.604Z,10.10
2019-05-10T02:30:01.048Z,10.10
2019-05-10T02:32:29.573Z,10.10
2019-05-10T02:34:58.042Z,10.10
2019-05-10T02:37:26.564Z,10.20
2019-05-10T02:39:55.115Z,10.10
2019-05-10T02:42:23.565Z,10.00
2019-05-10T02:44:52.017Z,10.00
2019-05-10T02:47:20.472Z,10.00
2019-05-10T02:49:48.910Z,9.90
2019-05-10T02:52:17.722Z,9.90
2019-05-10T02:54:46.460Z,9.90
2019-05-10T02:57:15.668Z,10.00
2019-05-10T02:59:44.856Z,10.10
2019-05-10T03:02:14.653Z,10.10
2019-05-10T03:04:46.058Z,10.30
2019-05-10T03:07:18.070Z,10.20
2019-05-10T03:09:49.257Z,10.30
2019-05-10T03:12:23.857Z,10.00
2019-05-10T03:14:57.768Z,9.80
2019-05-10T03:17:27.855Z,9.80
2019-05-10T03:19:58.373Z,9.70
2019-05-10T03:22:26.916Z,9.70
2019-05-10T03:24:55.524Z,9.60
2019-05-10T03:27:24.183Z,9.50
2019-05-10T03:29:52.718Z,9.60
2019-05-10T03:32:21.325Z,9.50
2019-05-10T03:34:49.849Z,9.60
2019-05-10T03:37:18.823Z,9.50
2019-05-10T03:39:47.417Z,9.40
2019-05-10T03:42:15.938Z,9.40
2019-05-10T03:44:44.537Z,9.40
2019-05-10T03:47:13.126Z,9.30
2019-05-10T03:49:41.561Z,9.30
2019-05-10T03:52:10.092Z,9.30
2019-05-10T03:54:38.539Z,9.30
2019-05-10T03:57:13.780Z,9.30
2019-05-10T03:59:37.224Z,9.40
2019-05-10T04:02:05.682Z,9.30
2019-05-10T04:04:34.700Z,9.30
2019-05-10T04:07:03.195Z,9.20
2019-05-10T04:09:31.705Z,9.10
2019-05-10T04:12:00.301Z,9.10
2019-05-10T04:14:28.742Z,9.10
2019-05-10T04:16:57.197Z,9.20
2019-05-10T04:19:25.745Z,9.20
2019-05-10T04:21:54.251Z,9.20
2019-05-10T04:24:22.703Z,9.10
2019-05-10T04:26:51.228Z,9.20
2019-05-10T04:29:19.779Z,9.30
2019-05-10T04:31:48.279Z,9.40
2019-05-10T04:34:16.739Z,9.50
2019-05-10T04:36:45.178Z,9.50
2019-05-10T04:39:13.694Z,9.70
2019-05-10T04:41:42.167Z,9.70
2019-05-10T04:44:10.676Z,9.90
2019-05-10T04:46:39.157Z,10.10
2019-05-10T04:49:07.611Z,10.10
2019-05-10T04:51:36.057Z,10.20
2019-05-10T04:54:04.593Z,10.30
2019-05-10T04:56:33.112Z,10.40
2019-05-10T04:59:01.617Z,10.50
2019-05-10T05:01:30.145Z,10.80
2019-05-10T05:03:58.598Z,10.80
2019-05-10T05:06:27.184Z,10.90
2019-05-10T05:08:55.645Z,10.90
2019-05-10T05:11:24.176Z,10.90
2019-05-10T05:13:52.628Z,11.00
2019-05-10T05:16:21.272Z,11.10
2019-05-10T05:18:49.737Z,11.30
2019-05-10T05:21:18.201Z,11.50
2019-05-10T05:23:46.650Z,11.60
2019-05-10T05:26:15.106Z,11.60
2019-05-10T05:28:43.580Z,11.60
2019-05-10T05:31:12.040Z,11.60
2019-05-10T05:33:40.566Z,11.50
2019-05-10T05:36:09.047Z,11.80
2019-05-10T05:38:40.588Z,11.90
2019-05-10T05:41:07.687Z,12.00
2019-05-10T05:43:45.711Z,12.10
2019-05-10T05:46:06.392Z,12.20
2019-05-10T05:48:40.346Z,12.20
2019-05-10T05:51:05.063Z,12.30
2019-05-10T05:53:35.859Z,12.20
2019-05-10T05:56:12.184Z,12.30
2019-05-10T05:58:38.141Z,12.30
2019-05-10T06:01:05.257Z,12.30
2019-05-10T06:03:33.758Z,12.20
2019-05-10T06:06:02.218Z,12.20
2019-05-10T06:08:30.749Z,12.10
2019-05-10T06:11:00.094Z,12.20
2019-05-10T06:13:30.753Z,12.30
2019-05-10T06:16:00.215Z,12.40
2019-05-10T06:18:29.351Z,12.60
2019-05-10T06:20:57.798Z,12.50
2019-05-10T06:23:29.048Z,12.30
2019-05-10T06:25:56.432Z,12.30
2019-05-10T06:28:28.865Z,12.30
2019-05-10T06:30:55.080Z,12.30
2019-05-10T06:33:23.591Z,12.50
2019-05-10T06:35:52.049Z,12.60
2019-05-10T06:38:20.491Z,12.60
2019-05-10T06:40:48.978Z,12.30
2019-05-10T06:43:17.494Z,12.40
2019-05-10T06:45:51.773Z,12.60
2019-05-10T06:48:26.045Z,12.70
2019-05-10T06:50:46.358Z,12.70
2019-05-10T06:53:14.869Z,12.90
2019-05-10T06:55:43.323Z,12.90
2019-05-10T06:58:11.783Z,12.80
2019-05-10T07:00:44.725Z,13.00
2019-05-10T07:03:10.835Z,12.80
2019-05-10T07:05:39.329Z,12.60
2019-05-10T07:08:16.398Z,12.30
2019-05-10T07:10:38.058Z,12.40
2019-05-10T07:13:06.835Z,12.40
2019-05-10T07:15:41.502Z,12.40
2019-05-10T07:18:05.700Z,12.30
2019-05-10T07:20:34.231Z,12.40
2019-05-10T07:23:05.991Z,12.40
2019-05-10T07:25:37.936Z,12.50
2019-05-10T07:28:03.105Z,12.30
2019-05-10T07:30:41.092Z,12.20
2019-05-10T07:33:08.090Z,12.30
2019-05-10T07:35:38.595Z,12.00
2019-05-10T07:38:06.842Z,12.20
2019-05-10T07:40:35.373Z,12.60
2019-05-10T07:43:03.953Z,12.80
2019-05-10T07:45:32.465Z,12.80
2019-05-10T07:48:02.407Z,12.80
2019-05-10T07:50:31.090Z,12.90
2019-05-10T07:52:59.599Z,12.70
2019-05-10T07:55:29.902Z,12.60
2019-05-10T07:58:04.406Z,12.40
2019-05-10T08:00:28.462Z,12.30
2019-05-10T08:03:07.516Z,12.30
2019-05-10T08:05:29.188Z,12.20
2019-05-10T08:07:58.855Z,12.10
2019-05-10T08:10:29.068Z,12.10
2019-05-10T08:12:59.583Z,12.10
2019-05-10T08:15:30.574Z,12.20
2019-05-10T08:17:58.722Z,12.30
2019-05-10T08:20:41.467Z,12.60
2019-05-10T08:22:57.537Z,12.80
2019-05-10T08:25:29.169Z,12.90
2019-05-10T08:27:56.240Z,13.00
2019-05-10T08:30:42.753Z,13.10
2019-05-10T08:33:12.023Z,13.10
2019-05-10T08:35:45.571Z,13.40
2019-05-10T08:38:12.964Z,13.60
2019-05-10T08:40:42.850Z,13.90
2019-05-10T08:43:15.591Z,13.70
2019-05-10T08:45:45.186Z,13.80
2019-05-10T08:48:12.727Z,13.70
2019-05-10T08:50:53.400Z,14.10
2019-05-10T08:53:16.417Z,13.80
2019-05-10T08:55:43.245Z,13.60
2019-05-10T08:58:12.457Z,13.70
2019-05-10T09:00:53.857Z,14.00
2019-05-10T09:03:18.065Z,14.20
2019-05-10T09:05:43.272Z,14.20
2019-05-10T09:08:19.447Z,14.50
2019-05-10T09:10:42.221Z,14.90
2019-05-10T09:13:12.905Z,15.40
2019-05-10T09:15:51.529Z,15.50
2019-05-10T09:18:12.767Z,15.10
2019-05-10T09:20:42.306Z,14.80
2019-05-10T09:23:17.941Z,14.80
2019-05-10T09:25:42.617Z,14.70
2019-05-10T09:28:16.487Z,14.50
2019-05-10T09:30:56.370Z,14.60
2019-05-10T09:33:14.354Z,14.90
2019-05-10T09:35:47.015Z,15.10
2019-05-10T09:38:12.653Z,15.20
2019-05-10T09:40:50.550Z,15.10
2019-05-10T09:43:14.426Z,15.30
2019-05-10T09:45:42.470Z,15.10
2019-05-10T09:48:12.153Z,15.20
2019-05-10T09:50:46.346Z,15.30
2019-05-10T09:53:15.134Z,15.40
2019-05-10T09:55:45.530Z,15.20
2019-05-10T09:58:11.359Z,15.00
2019-05-10T10:00:39.962Z,15.00
2019-05-10T10:03:08.579Z,15.00
2019-05-10T10:05:39.744Z,15.00
2019-05-10T10:08:09.076Z,14.70
2019-05-10T10:10:37.518Z,14.60
2019-05-10T10:13:11.788Z,14.50
2019-05-10T10:15:37.238Z,14.70
2019-05-10T10:18:06.130Z,14.90
2019-05-10T10:20:36.075Z,15.00
2019-05-10T10:23:07.302Z,15.10
2019-05-10T10:25:40.691Z,15.20
2019-05-10T10:28:10.353Z,15.20
2019-05-10T10:30:37.298Z,15.20
2019-05-10T10:33:11.904Z,15.30
2019-05-10T10:35:37.904Z,15.20
2019-05-10T10:38:08.113Z,15.10
2019-05-10T10:40:44.120Z,14.80
2019-05-10T10:43:07.692Z,14.70
2019-05-10T10:45:37.658Z,14.60
2019-05-10T10:48:08.574Z,14.60
2019-05-10T10:50:36.745Z,14.50
2019-05-10T10:53:07.772Z,14.40
2019-05-10T10:55:39.458Z,14.50
2019-05-10T10:58:07.366Z,14.50
2019-05-10T11:00:38.816Z,14.60
2019-05-10T11:03:06.605Z,14.70
2019-05-10T11:05:35.133Z,14.60
2019-05-10T11:08:03.613Z,14.50
2019-05-10T11:10:32.662Z,14.50
2019-05-10T11:13:02.862Z,14.50
2019-05-10T11:15:35.824Z,14.60
2019-05-10T11:18:02.068Z,14.80
2019-05-10T11:20:31.787Z,15.10
2019-05-10T11:23:00.563Z,15.10
2019-05-10T11:25:29.113Z,15.10
2019-05-10T11:27:59.266Z,15.10
2019-05-10T11:30:27.732Z,15.00
2019-05-10T11:32:56.265Z,14.60
2019-05-10T11:35:30.999Z,14.70
2019-05-10T11:37:54.971Z,14.70
2019-05-10T11:40:29.818Z,14.80
2019-05-10T11:42:53.612Z,14.70
2019-05-10T11:45:26.099Z,14.70
2019-05-10T11:47:54.387Z,14.90
2019-05-10T11:50:31.524Z,15.30
2019-05-10T11:52:52.999Z,16.60
2019-05-10T11:58:02.050Z,18.60
2019-05-10T11:59:03.715Z,17.40
2019-05-10T12:00:28.375Z,20.60
2019-05-10T12:03:06.931Z,21.00
2019-05-10T12:05:26.375Z,21.30
2019-05-10T12:07:54.737Z,20.30
2019-05-10T12:10:25.690Z,18.00
2019-05-10T12:13:06.599Z,18.90
2019-05-10T12:15:25.517Z,20.80
2019-05-10T12:20:41.594Z,22.10
2019-05-10T12:22:53.961Z,19.00
2019-05-10T12:25:42.106Z,17.80
2019-05-10T12:26:31.279Z,22.90
2019-05-10T12:27:52.678Z,17.50
2019-05-10T12:30:21.870Z,16.60
2019-05-10T12:33:05.837Z,15.40
2019-05-10T12:35:21.297Z,16.70
2019-05-10T12:37:53.998Z,18.90
2019-05-10T12:40:24.260Z,19.90
2019-05-10T12:42:51.201Z,19.70
2019-05-10T12:45:22.900Z,17.80
2019-05-10T12:47:51.796Z,18.40
2019-05-10T12:50:21.264Z,19.30
2019-05-10T12:53:02.749Z,19.10
2019-05-10T12:55:19.972Z,18.40
2019-05-10T12:57:48.417Z,18.80
2019-05-10T13:00:17.230Z,18.00
2019-05-10T13:02:51.316Z,16.80
2019-05-10T13:05:17.493Z,16.40
2019-05-10T13:07:45.956Z,16.40
2019-05-10T13:10:18.536Z,17.10
2019-05-10T13:12:47.579Z,18.00
2019-05-10T13:15:16.546Z,19.70
2019-05-10T13:17:50.417Z,22.30
2019-05-10T13:20:15.735Z,23.60
2019-05-10T13:22:44.243Z,24.00
2019-05-10T13:25:13.532Z,23.90
2019-05-10T13:27:42.003Z,24.90
2019-05-10T13:30:10.917Z,24.70
2019-05-10T13:32:39.451Z,23.10
2019-05-10T13:35:08.712Z,22.10
2019-05-10T13:37:37.176Z,23.30
2019-05-10T13:40:08.050Z,24.20
2019-05-10T13:42:43.071Z,25.50
2019-05-10T13:45:07.644Z,26.00
2019-05-10T13:47:36.101Z,25.20
2019-05-10T13:50:08.566Z,24.50
2019-05-10T13:52:38.923Z,24.60
2019-05-10T13:55:07.449Z,25.30
2019-05-10T13:57:35.975Z,26.40
2019-05-10T14:00:07.541Z,25.80
2019-05-10T14:02:36.005Z,23.40
2019-05-10T14:05:06.012Z,23.20
2019-05-10T14:07:34.498Z,23.10
2019-05-10T14:10:05.942Z,23.00
2019-05-10T14:12:34.423Z,23.00
2019-05-10T14:15:08.320Z,22.40
2019-05-10T14:17:33.060Z,20.50
2019-05-10T14:20:01.538Z,19.40
2019-05-10T14:22:30.060Z,19.60
2019-05-10T14:24:59.164Z,20.70
2019-05-10T14:27:29.929Z,21.00
2019-05-10T14:29:58.204Z,20.90
2019-05-10T14:32:26.707Z,21.00
2019-05-10T14:34:55.234Z,21.80
2019-05-10T14:37:23.684Z,20.70
2019-05-10T14:39:52.210Z,21.10
2019-05-10T14:42:23.982Z,22.00
2019-05-10T14:44:50.846Z,21.30
2019-05-10T14:47:19.294Z,20.20
2019-05-10T14:49:48.718Z,20.10
2019-05-10T14:52:17.556Z,20.00
2019-05-10T14:54:49.921Z,20.30
2019-05-10T14:57:16.208Z,20.40
2019-05-10T14:59:44.657Z,21.50
2019-05-10T15:02:20.354Z,22.70
2019-05-10T15:04:45.042Z,23.90
2019-05-10T15:07:14.326Z,23.30
2019-05-10T15:09:43.628Z,22.70
2019-05-10T15:12:16.298Z,22.20
2019-05-10T15:14:42.263Z,21.50
2019-05-10T15:17:10.735Z,20.20
2019-05-10T15:19:39.178Z,20.50
2019-05-10T15:22:09.181Z,20.80
2019-05-10T15:24:37.672Z,22.40
2019-05-10T15:27:06.136Z,21.70
2019-05-10T15:29:34.598Z,22.20
2019-05-10T15:32:03.036Z,22.00
2019-05-10T15:34:31.495Z,21.50
2019-05-10T15:37:09.134Z,21.10
2019-05-10T15:39:31.316Z,21.70
2019-05-10T15:42:00.980Z,21.10
2019-05-10T15:44:31.386Z,19.90
2019-05-10T15:46:59.912Z,19.70
2019-05-10T15:49:28.351Z,19.70
2019-05-10T15:52:15.179Z,18.80
2019-05-10T15:54:27.048Z,18.30
2019-05-10T15:56:55.998Z,18.10
2019-05-10T15:59:24.716Z,17.90
2019-05-10T16:01:53.234Z,17.50
2019-05-10T16:04:21.749Z,17.20
2019-05-10T16:06:50.199Z,16.50
2019-05-10T16:09:19.335Z,17.70
2019-05-10T16:11:47.977Z,19.10
2019-05-10T16:14:16.440Z,20.30
2019-05-10T16:16:44.898Z,21.50
2019-05-10T16:19:18.521Z,22.00
2019-05-10T16:21:46.737Z,22.20
2019-05-10T16:24:13.801Z,22.00
2019-05-10T16:26:42.323Z,22.50
2019-05-10T16:29:10.817Z,22.70
2019-05-10T16:31:39.313Z,22.80
2019-05-10T16:34:07.840Z,23.10
2019-05-10T16:36:36.355Z,22.80
2019-05-10T16:39:06.817Z,21.70
2019-05-10T16:41:35.263Z,21.50
2019-05-10T16:44:03.847Z,22.40
2019-05-10T16:46:32.322Z,23.20
2019-05-10T16:49:00.825Z,22.50
2019-05-10T16:51:29.285Z,21.80
2019-05-10T16:53:57.746Z,21.60
2019-05-10T16:56:26.283Z,21.50
2019-05-10T16:58:55.181Z,20.80
2019-05-10T17:01:25.749Z,21.10
2019-05-10T17:04:00.056Z,20.80
2019-05-10T17:06:24.274Z,20.50
2019-05-10T17:08:52.854Z,20.50
2019-05-10T17:11:21.348Z,20.10
2019-05-10T17:13:49.891Z,19.80
2019-05-10T17:16:18.934Z,19.70
2019-05-10T17:18:55.402Z,19.90
2019-05-10T17:21:21.786Z,20.00
2019-05-10T17:23:50.245Z,19.90
2019-05-10T17:26:18.709Z,19.50
2019-05-10T17:28:47.205Z,18.80
2019-05-10T17:31:15.647Z,18.10
2019-05-10T17:33:44.325Z,17.60
2019-05-10T17:36:14.627Z,17.30
2019-05-10T17:38:47.315Z,17.10
2019-05-10T17:41:13.469Z,17.00
2019-05-10T17:43:41.932Z,16.90
2019-05-10T17:46:12.918Z,17.00
2019-05-10T17:48:46.465Z,16.70
2019-05-10T17:51:10.857Z,16.50
2019-05-10T17:53:39.379Z,16.50
2019-05-10T17:56:07.832Z,16.60
2019-05-10T17:58:36.292Z,16.80
2019-05-10T18:01:04.747Z,17.20
2019-05-10T18:03:33.300Z,16.50
2019-05-10T18:06:01.768Z,16.30
2019-05-10T18:08:30.226Z,16.30
2019-05-10T18:11:03.915Z,16.20
2019-05-10T18:13:28.884Z,16.00
2019-05-10T18:15:57.356Z,15.80
2019-05-10T18:18:25.964Z,15.60
2019-05-10T18:20:54.420Z,15.80
2019-05-10T18:23:23.106Z,16.00
2019-05-10T18:25:52.510Z,16.00
2019-05-10T18:28:22.083Z,15.90
2019-05-10T18:30:50.638Z,15.70
2019-05-10T18:33:19.084Z,15.70
2019-05-10T18:35:52.628Z,16.00
2019-05-10T18:38:17.725Z,16.00
2019-05-10T18:40:46.176Z,16.20
2019-05-10T18:43:14.648Z,16.50
2019-05-10T18:45:43.161Z,16.50
2019-05-10T18:48:11.626Z,16.70
2019-05-10T18:50:45.437Z,16.40
2019-05-10T18:53:10.361Z,16.20
2019-05-10T18:55:38.893Z,16.30
2019-05-10T18:58:07.412Z,16.10
2019-05-10T19:00:35.876Z,15.60
2019-05-10T19:03:04.394Z,15.40
2019-05-10T19:05:33.207Z,15.40
2019-05-10T19:08:05.427Z,15.50
2019-05-10T19:10:32.065Z,15.20
2019-05-10T19:13:03.904Z,15.00
2019-05-10T19:15:30.733Z,15.00
2019-05-10T19:17:59.237Z,15.10
2019-05-10T19:20:27.712Z,14.90
2019-05-10T19:22:56.237Z,15.10
2019-05-10T19:25:24.724Z,14.70
2019-05-10T19:27:53.249Z,14.70
2019-05-10T19:30:22.465Z,14.60
2019-05-10T19:32:56.139Z,14.50
2019-05-10T19:35:21.310Z,14.80
2019-05-10T19:37:49.823Z,14.90
2019-05-10T19:40:18.560Z,14.90
2019-05-10T19:42:49.431Z,14.80
2019-05-10T19:45:19.337Z,14.80
2019-05-10T19:47:49.995Z,14.90
2019-05-10T19:50:18.181Z,14.70
2019-05-10T19:52:46.717Z,14.50
2019-05-10T19:55:19.340Z,14.40
2019-05-10T19:57:49.487Z,14.30
2019-05-10T20:00:16.346Z,14.50
2019-05-10T20:02:44.785Z,14.70
2019-05-10T20:05:13.385Z,14.80
2019-05-10T20:07:45.835Z,14.90
2019-05-10T20:10:12.663Z,14.70
2019-05-10T20:12:41.200Z,14.60
2019-05-10T20:15:10.369Z,14.70
2019-05-10T20:17:39.237Z,14.60
2019-05-10T20:20:07.991Z,14.50
2019-05-10T20:22:37.336Z,14.50
2019-05-10T20:25:07.532Z,14.80
2019-05-10T20:27:36.041Z,14.60
2019-05-10T20:30:06.213Z,14.20
2019-05-10T20:32:34.697Z,14.10
2019-05-10T20:35:03.319Z,14.00
2019-05-10T20:37:31.850Z,13.80
2019-05-10T20:40:00.330Z,13.80
2019-05-10T20:42:28.859Z,13.90
2019-05-10T20:45:06.538Z,14.10
2019-05-10T20:47:27.537Z,14.00
2019-05-10T20:49:55.973Z,14.10
2019-05-10T20:52:24.450Z,14.20
2019-05-10T20:54:53.041Z,14.00
2019-05-10T20:57:21.631Z,14.10
2019-05-10T20:59:50.137Z,14.10
2019-05-10T21:02:18.585Z,14.00
2019-05-10T21:04:47.051Z,14.00
2019-05-10T21:07:15.517Z,13.70
2019-05-10T21:09:43.985Z,13.60
2019-05-10T21:12:12.437Z,13.40
2019-05-10T21:14:40.915Z,13.40
2019-05-10T21:17:09.431Z,13.50
2019-05-10T21:19:38.038Z,13.30
2019-05-10T21:22:06.602Z,13.30
2019-05-10T21:24:35.107Z,13.50
2019-05-10T21:27:03.681Z,13.50
2019-05-10T21:29:32.243Z,13.70
2019-05-10T21:32:00.690Z,13.70
2019-05-10T21:34:29.177Z,13.70
2019-05-10T21:36:57.623Z,13.80
2019-05-10T21:39:26.072Z,14.00
2019-05-10T21:41:54.536Z,14.20
2019-05-10T21:44:23.065Z,14.40
2019-05-10T21:46:53.647Z,14.40
2019-05-10T21:49:21.695Z,14.30
2019-05-10T21:51:50.152Z,14.10
2019-05-10T21:54:18.605Z,14.00
2019-05-10T21:56:47.065Z,14.00
2019-05-10T21:59:15.584Z,13.90
2019-05-10T22:01:44.062Z,13.80
2019-05-10T22:04:12.518Z,14.00
2019-05-10T22:06:40.976Z,14.10
2019-05-10T22:09:10.439Z,14.00
2019-05-10T22:11:39.021Z,14.10
2019-05-10T22:14:07.513Z,14.10
2019-05-10T22:16:35.960Z,14.00
2019-05-10T22:19:04.437Z,13.90
2019-05-10T22:21:32.980Z,14.10
2019-05-10T22:24:01.452Z,13.80
2019-05-10T22:26:29.917Z,13.60
2019-05-10T22:28:58.380Z,13.60
2019-05-10T22:31:26.921Z,13.50
2019-05-10T22:33:55.457Z,13.40
2019-05-10T22:36:23.924Z,13.60
2019-05-10T22:39:05.824Z,13.90
2019-05-10T22:41:22.546Z,14.00
2019-05-10T22:43:50.998Z,14.00
2019-05-10T22:46:19.443Z,13.90
2019-05-10T22:48:47.912Z,13.60
2019-05-10T22:51:16.372Z,13.40
2019-05-10T22:53:53.266Z,13.40
2019-05-10T22:56:14.996Z,13.30
2019-05-10T22:58:43.451Z,13.30
2019-05-10T23:01:11.904Z,13.20
2019-05-10T23:03:40.368Z,13.20
2019-05-10T23:06:08.905Z,13.00
2019-05-10T23:08:37.353Z,12.90
2019-05-10T23:11:05.821Z,12.90
2019-05-10T23:13:34.267Z,12.80
2019-05-10T23:16:02.829Z,12.80
2019-05-10T23:18:31.267Z,13.00
2019-05-10T23:20:59.717Z,13.00
2019-05-10T23:23:28.187Z,13.20
2019-05-10T23:25:56.628Z,13.20
2019-05-10T23:28:25.080Z,13.30
2019-05-10T23:30:53.545Z,13.20
2019-05-10T23:33:22.028Z,13.00
2019-05-10T23:35:50.479Z,13.00
2019-05-10T23:38:18.921Z,13.00
2019-05-10T23:40:47.388Z,13.00
2019-05-10T23:43:15.844Z,13.20
2019-05-10T23:45:44.300Z,13.20
2019-05-10T23:48:12.741Z,13.20
2019-05-10T23:50:41.205Z,13.30
2019-05-10T23:53:09.652Z,13.40
2019-05-10T23:55:38.124Z,13.20
2019-05-10T23:58:06.578Z,13.40
